Terminal Aerodrome Forecast
Issued by NWS Houston/Galveston, TX

Home | Current Version | Previous Version | Text Only | Print | Product List | Glossary On
Versions: 1 2 3 4 5 6 7 8 9 10 11 12 13 14 15
000
FTUS44 KHGX 180520
TAFCLL
TAF
KCLL 180520Z 1806/1906 VRB05KT P6SM SCT025 BKN050
      TEMPO 1806/1810 5SM -RADZ BKN025
     FM181500 03007KT P6SM BKN050
     FM190200 04005KT P6SM SKC=

USA.gov is the U.S. government's official web portal to all federal, state and local government web resources and services.